sensor_id;sensor_type;location;lat;lon;timestamp;temperature;humidity
18103;DHT22;9178;51.120;6.192;2022-10-18T00:00:10;14.90;99.90
18103;DHT22;9178;51.120;6.192;2022-10-18T00:02:37;14.90;99.90
18103;DHT22;9178;51.120;6.192;2022-10-18T00:05:04;14.90;99.90
18103;DHT22;9178;51.120;6.192;2022-10-18T00:07:32;14.90;99.90
18103;DHT22;9178;51.120;6.192;2022-10-18T00:09:59;14.90;99.90
18103;DHT22;9178;51.120;6.192;2022-10-18T00:12:26;14.90;99.90
18103;DHT22;9178;51.120;6.192;2022-10-18T00:14:53;14.90;99.90
18103;DHT22;9178;51.120;6.192;2022-10-18T00:17:20;14.90;99.90
18103;DHT22;9178;51.120;6.192;2022-10-18T00:19:47;14.90;99.90
18103;DHT22;9178;51.120;6.192;2022-10-18T00:22:14;14.90;99.90
18103;DHT22;9178;51.120;6.192;2022-10-18T00:24:43;14.90;99.90
18103;DHT22;9178;51.120;6.192;2022-10-18T00:27:10;14.90;99.90
18103;DHT22;9178;51.120;6.192;2022-10-18T00:29:37;14.80;99.90
18103;DHT22;9178;51.120;6.192;2022-10-18T00:32:04;14.90;99.90
18103;DHT22;9178;51.120;6.192;2022-10-18T00:34:31;14.90;99.90
18103;DHT22;9178;51.120;6.192;2022-10-18T00:36:57;14.90;99.90
18103;DHT22;9178;51.120;6.192;2022-10-18T00:39:24;14.80;99.90
18103;DHT22;9178;51.120;6.192;2022-10-18T00:41:52;14.80;99.90
18103;DHT22;9178;51.120;6.192;2022-10-18T00:47:24;14.80;99.90
18103;DHT22;9178;51.120;6.192;2022-10-18T00:49:53;14.80;99.90
18103;DHT22;9178;51.120;6.192;2022-10-18T00:52:26;14.70;99.90
18103;DHT22;9178;51.120;6.192;2022-10-18T00:54:54;14.70;99.90
18103;DHT22;9178;51.120;6.192;2022-10-18T00:57:23;14.70;99.90
18103;DHT22;9178;51.120;6.192;2022-10-18T00:59:50;14.70;99.90
18103;DHT22;9178;51.120;6.192;2022-10-18T01:02:18;14.70;99.90
18103;DHT22;9178;51.120;6.192;2022-10-18T01:04:45;14.70;99.90
18103;DHT22;9178;51.120;6.192;2022-10-18T01:07:22;14.70;99.90
18103;DHT22;9178;51.120;6.192;2022-10-18T01:09:58;14.70;99.90
18103;DHT22;9178;51.120;6.192;2022-10-18T01:12:34;14.80;99.90
18103;DHT22;9178;51.120;6.192;2022-10-18T01:15:10;14.80;99.90
18103;DHT22;9178;51.120;6.192;2022-10-18T01:17:45;14.70;99.90
18103;DHT22;9178;51.120;6.192;2022-10-18T01:20:40;14.80;99.90
18103;DHT22;9178;51.120;6.192;2022-10-18T01:23:14;14.80;99.90
18103;DHT22;9178;51.120;6.192;2022-10-18T01:25:49;14.80;99.90
18103;DHT22;9178;51.120;6.192;2022-10-18T01:28:33;14.80;99.90
18103;DHT22;9178;51.120;6.192;2022-10-18T01:31:08;14.80;99.90
18103;DHT22;9178;51.120;6.192;2022-10-18T01:33:40;14.80;99.90
18103;DHT22;9178;51.120;6.192;2022-10-18T01:36:13;14.80;99.90
18103;DHT22;9178;51.120;6.192;2022-10-18T01:38:42;14.80;99.90
18103;DHT22;9178;51.120;6.192;2022-10-18T01:41:11;14.80;99.90
18103;DHT22;9178;51.120;6.192;2022-10-18T01:43:39;14.70;99.90
18103;DHT22;9178;51.120;6.192;2022-10-18T01:46:08;14.80;99.90
18103;DHT22;9178;51.120;6.192;2022-10-18T01:48:36;14.80;99.90
18103;DHT22;9178;51.120;6.192;2022-10-18T01:51:03;14.80;99.90
18103;DHT22;9178;51.120;6.192;2022-10-18T01:53:32;14.80;99.90
18103;DHT22;9178;51.120;6.192;2022-10-18T01:56:19;14.80;99.90
18103;DHT22;9178;51.120;6.192;2022-10-18T02:01:51;14.80;99.90
18103;DHT22;9178;51.120;6.192;2022-10-18T02:04:26;14.80;99.90
18103;DHT22;9178;51.120;6.192;2022-10-18T02:06:59;14.80;99.90
18103;DHT22;9178;51.120;6.192;2022-10-18T02:09:34;14.70;99.90
18103;DHT22;9178;51.120;6.192;2022-10-18T02:12:05;14.80;99.90
18103;DHT22;9178;51.120;6.192;2022-10-18T02:14:35;14.80;99.90
18103;DHT22;9178;51.120;6.192;2022-10-18T02:17:05;14.80;99.90
18103;DHT22;9178;51.120;6.192;2022-10-18T02:19:36;14.80;99.90
18103;DHT22;9178;51.120;6.192;2022-10-18T02:22:06;14.80;99.90
18103;DHT22;9178;51.120;6.192;2022-10-18T02:24:35;14.70;99.90
18103;DHT22;9178;51.120;6.192;2022-10-18T02:27:03;14.80;99.90
18103;DHT22;9178;51.120;6.192;2022-10-18T02:29:31;14.80;99.90
18103;DHT22;9178;51.120;6.192;2022-10-18T02:32:05;14.80;99.90
18103;DHT22;9178;51.120;6.192;2022-10-18T02:34:38;14.70;99.90
18103;DHT22;9178;51.120;6.192;2022-10-18T02:37:06;14.80;99.90
18103;DHT22;9178;51.120;6.192;2022-10-18T02:39:35;14.80;99.90
18103;DHT22;9178;51.120;6.192;2022-10-18T02:42:03;14.80;99.90
18103;DHT22;9178;51.120;6.192;2022-10-18T02:44:31;14.80;99.90
18103;DHT22;9178;51.120;6.192;2022-10-18T02:46:58;14.80;99.90
18103;DHT22;9178;51.120;6.192;2022-10-18T02:49:26;14.80;99.90
18103;DHT22;9178;51.120;6.192;2022-10-18T02:51:53;14.80;99.90
18103;DHT22;9178;51.120;6.192;2022-10-18T02:54:20;14.80;99.90
18103;DHT22;9178;51.120;6.192;2022-10-18T02:56:47;14.80;99.90
18103;DHT22;9178;51.120;6.192;2022-10-18T02:59:14;14.80;99.90
18103;DHT22;9178;51.120;6.192;2022-10-18T03:01:41;14.80;99.90
18103;DHT22;9178;51.120;6.192;2022-10-18T03:04:08;14.80;99.90
18103;DHT22;9178;51.120;6.192;2022-10-18T03:06:36;14.80;99.90
18103;DHT22;9178;51.120;6.192;2022-10-18T03:09:03;14.80;99.90
18103;DHT22;9178;51.120;6.192;2022-10-18T03:11:30;14.80;99.90
18103;DHT22;9178;51.120;6.192;2022-10-18T03:13:57;14.90;99.90
18103;DHT22;9178;51.120;6.192;2022-10-18T03:16:24;14.90;99.90
18103;DHT22;9178;51.120;6.192;2022-10-18T03:18:51;14.90;99.90
18103;DHT22;9178;51.120;6.192;2022-10-18T03:21:18;14.90;99.90
18103;DHT22;9178;51.120;6.192;2022-10-18T03:23:46;14.90;99.90
18103;DHT22;9178;51.120;6.192;2022-10-18T03:26:13;14.90;99.90
18103;DHT22;9178;51.120;6.192;2022-10-18T03:28:40;14.90;99.90
18103;DHT22;9178;51.120;6.192;2022-10-18T03:31:07;14.90;99.90
18103;DHT22;9178;51.120;6.192;2022-10-18T03:33:34;15.00;99.90
18103;DHT22;9178;51.120;6.192;2022-10-18T03:36:00;15.00;99.90
18103;DHT22;9178;51.120;6.192;2022-10-18T03:38:27;15.00;99.90
18103;DHT22;9178;51.120;6.192;2022-10-18T03:40:55;15.00;99.90
18103;DHT22;9178;51.120;6.192;2022-10-18T03:43:22;15.00;99.90
18103;DHT22;9178;51.120;6.192;2022-10-18T03:45:49;15.00;99.90
18103;DHT22;9178;51.120;6.192;2022-10-18T03:48:16;15.00;99.90
18103;DHT22;9178;51.120;6.192;2022-10-18T03:50:43;14.90;99.90
18103;DHT22;9178;51.120;6.192;2022-10-18T03:53:10;14.90;99.90
18103;DHT22;9178;51.120;6.192;2022-10-18T03:55:37;14.90;99.90
18103;DHT22;9178;51.120;6.192;2022-10-18T03:58:05;15.00;99.90
18103;DHT22;9178;51.120;6.192;2022-10-18T04:00:32;15.00;99.90
18103;DHT22;9178;51.120;6.192;2022-10-18T04:02:59;15.00;99.90
18103;DHT22;9178;51.120;6.192;2022-10-18T04:05:26;15.00;99.90
18103;DHT22;9178;51.120;6.192;2022-10-18T04:07:55;15.00;99.90
18103;DHT22;9178;51.120;6.192;2022-10-18T04:10:22;15.00;99.90
18103;DHT22;9178;51.120;6.192;2022-10-18T04:12:49;15.10;99.90
18103;DHT22;9178;51.120;6.192;2022-10-18T04:15:17;15.10;99.90
18103;DHT22;9178;51.120;6.192;2022-10-18T04:17:44;15.10;99.90
18103;DHT22;9178;51.120;6.192;2022-10-18T04:20:11;15.10;99.90
18103;DHT22;9178;51.120;6.192;2022-10-18T04:22:38;15.10;99.90
18103;DHT22;9178;51.120;6.192;2022-10-18T04:25:05;15.10;99.90
18103;DHT22;9178;51.120;6.192;2022-10-18T04:27:32;15.10;99.90
18103;DHT22;9178;51.120;6.192;2022-10-18T04:29:59;15.10;99.90
18103;DHT22;9178;51.120;6.192;2022-10-18T04:32:27;15.10;99.90
18103;DHT22;9178;51.120;6.192;2022-10-18T04:34:53;15.10;99.90
18103;DHT22;9178;51.120;6.192;2022-10-18T04:37:20;15.10;99.90
18103;DHT22;9178;51.120;6.192;2022-10-18T04:39:47;15.20;99.90
18103;DHT22;9178;51.120;6.192;2022-10-18T04:42:14;15.20;99.90
18103;DHT22;9178;51.120;6.192;2022-10-18T04:44:41;15.10;99.90
18103;DHT22;9178;51.120;6.192;2022-10-18T04:47:07;15.10;99.90
18103;DHT22;9178;51.120;6.192;2022-10-18T04:49:36;15.10;99.90
18103;DHT22;9178;51.120;6.192;2022-10-18T04:52:03;15.10;99.90
18103;DHT22;9178;51.120;6.192;2022-10-18T04:54:30;15.10;99.90
18103;DHT22;9178;51.120;6.192;2022-10-18T04:56:57;15.10;99.90
18103;DHT22;9178;51.120;6.192;2022-10-18T04:59:23;15.10;99.90
18103;DHT22;9178;51.120;6.192;2022-10-18T05:01:50;15.00;99.90
18103;DHT22;9178;51.120;6.192;2022-10-18T05:04:17;15.00;99.90
18103;DHT22;9178;51.120;6.192;2022-10-18T05:06:46;15.00;99.90
18103;DHT22;9178;51.120;6.192;2022-10-18T05:09:13;15.00;99.90
18103;DHT22;9178;51.120;6.192;2022-10-18T05:11:39;15.00;99.90
18103;DHT22;9178;51.120;6.192;2022-10-18T05:14:06;15.00;99.90
18103;DHT22;9178;51.120;6.192;2022-10-18T05:16:34;15.00;99.90
18103;DHT22;9178;51.120;6.192;2022-10-18T05:19:03;15.00;99.90
18103;DHT22;9178;51.120;6.192;2022-10-18T05:21:29;15.00;99.90
18103;DHT22;9178;51.120;6.192;2022-10-18T05:23:58;15.00;99.90
18103;DHT22;9178;51.120;6.192;2022-10-18T05:26:25;15.00;99.90
18103;DHT22;9178;51.120;6.192;2022-10-18T05:28:52;15.00;99.90
18103;DHT22;9178;51.120;6.192;2022-10-18T05:31:18;15.00;99.90
18103;DHT22;9178;51.120;6.192;2022-10-18T05:33:45;15.00;99.90
18103;DHT22;9178;51.120;6.192;2022-10-18T05:36:12;15.00;99.90
18103;DHT22;9178;51.120;6.192;2022-10-18T05:38:39;15.00;99.90
18103;DHT22;9178;51.120;6.192;2022-10-18T05:41:09;15.00;99.90
18103;DHT22;9178;51.120;6.192;2022-10-18T05:43:36;15.00;99.90
18103;DHT22;9178;51.120;6.192;2022-10-18T05:46:03;14.90;99.90
18103;DHT22;9178;51.120;6.192;2022-10-18T05:48:32;14.90;99.90
18103;DHT22;9178;51.120;6.192;2022-10-18T05:50:59;14.90;99.90
18103;DHT22;9178;51.120;6.192;2022-10-18T05:53:26;14.90;99.90
18103;DHT22;9178;51.120;6.192;2022-10-18T05:55:53;14.90;99.90
18103;DHT22;9178;51.120;6.192;2022-10-18T05:58:21;14.90;99.90
18103;DHT22;9178;51.120;6.192;2022-10-18T06:00:48;14.90;99.90
18103;DHT22;9178;51.120;6.192;2022-10-18T06:03:15;14.80;99.90
18103;DHT22;9178;51.120;6.192;2022-10-18T06:05:42;14.80;99.90
18103;DHT22;9178;51.120;6.192;2022-10-18T06:08:09;14.90;99.90
18103;DHT22;9178;51.120;6.192;2022-10-18T06:10:37;14.90;99.90
18103;DHT22;9178;51.120;6.192;2022-10-18T06:13:04;14.80;99.90
18103;DHT22;9178;51.120;6.192;2022-10-18T06:15:33;14.80;99.90
18103;DHT22;9178;51.120;6.192;2022-10-18T06:17:59;14.80;99.90
18103;DHT22;9178;51.120;6.192;2022-10-18T06:20:26;14.80;99.90
18103;DHT22;9178;51.120;6.192;2022-10-18T06:22:53;14.80;99.90
18103;DHT22;9178;51.120;6.192;2022-10-18T06:25:20;14.80;99.90
18103;DHT22;9178;51.120;6.192;2022-10-18T06:27:46;14.80;99.90
18103;DHT22;9178;51.120;6.192;2022-10-18T06:30:13;14.80;99.90
18103;DHT22;9178;51.120;6.192;2022-10-18T06:32:44;14.90;99.90
18103;DHT22;9178;51.120;6.192;2022-10-18T06:35:11;14.90;99.90
18103;DHT22;9178;51.120;6.192;2022-10-18T06:37:37;14.90;99.90
18103;DHT22;9178;51.120;6.192;2022-10-18T06:40:05;14.90;99.90
18103;DHT22;9178;51.120;6.192;2022-10-18T06:42:32;14.90;99.90
18103;DHT22;9178;51.120;6.192;2022-10-18T06:44:59;14.90;99.90
18103;DHT22;9178;51.120;6.192;2022-10-18T06:47:26;15.00;99.90
18103;DHT22;9178;51.120;6.192;2022-10-18T06:49:54;15.00;99.90
18103;DHT22;9178;51.120;6.192;2022-10-18T06:52:21;15.00;99.90
18103;DHT22;9178;51.120;6.192;2022-10-18T06:54:50;15.00;99.90
18103;DHT22;9178;51.120;6.192;2022-10-18T06:57:17;15.00;99.90
18103;DHT22;9178;51.120;6.192;2022-10-18T06:59:43;15.00;99.90
18103;DHT22;9178;51.120;6.192;2022-10-18T07:02:14;15.10;99.90
18103;DHT22;9178;51.120;6.192;2022-10-18T07:04:41;15.10;99.90
18103;DHT22;9178;51.120;6.192;2022-10-18T07:07:09;15.10;99.90
18103;DHT22;9178;51.120;6.192;2022-10-18T07:09:36;15.10;99.90
18103;DHT22;9178;51.120;6.192;2022-10-18T07:12:03;15.10;99.90
18103;DHT22;9178;51.120;6.192;2022-10-18T07:14:30;15.20;99.90
18103;DHT22;9178;51.120;6.192;2022-10-18T07:16:58;15.20;99.90
18103;DHT22;9178;51.120;6.192;2022-10-18T07:19:25;15.20;99.90
18103;DHT22;9178;51.120;6.192;2022-10-18T07:21:51;15.20;99.90
18103;DHT22;9178;51.120;6.192;2022-10-18T07:24:20;15.20;99.90
18103;DHT22;9178;51.120;6.192;2022-10-18T07:26:46;15.30;99.90
18103;DHT22;9178;51.120;6.192;2022-10-18T07:29:13;15.40;99.90
18103;DHT22;9178;51.120;6.192;2022-10-18T07:31:40;15.40;99.90
18103;DHT22;9178;51.120;6.192;2022-10-18T07:34:09;15.40;99.90
18103;DHT22;9178;51.120;6.192;2022-10-18T07:36:37;15.50;99.90
18103;DHT22;9178;51.120;6.192;2022-10-18T07:39:04;15.50;99.90
18103;DHT22;9178;51.120;6.192;2022-10-18T07:41:32;15.50;99.90
18103;DHT22;9178;51.120;6.192;2022-10-18T07:43:59;15.50;99.90
18103;DHT22;9178;51.120;6.192;2022-10-18T07:46:26;15.50;99.90
18103;DHT22;9178;51.120;6.192;2022-10-18T07:48:53;15.50;99.90
18103;DHT22;9178;51.120;6.192;2022-10-18T07:51:22;15.60;99.90
18103;DHT22;9178;51.120;6.192;2022-10-18T07:53:49;15.60;99.90
18103;DHT22;9178;51.120;6.192;2022-10-18T07:56:18;15.60;99.90
18103;DHT22;9178;51.120;6.192;2022-10-18T07:58:48;15.70;99.90
18103;DHT22;9178;51.120;6.192;2022-10-18T08:01:17;15.70;99.90
18103;DHT22;9178;51.120;6.192;2022-10-18T08:03:44;15.70;99.90
18103;DHT22;9178;51.120;6.192;2022-10-18T08:06:13;15.80;99.90
18103;DHT22;9178;51.120;6.192;2022-10-18T08:08:41;15.80;99.90
18103;DHT22;9178;51.120;6.192;2022-10-18T08:11:09;15.80;99.90
18103;DHT22;9178;51.120;6.192;2022-10-18T08:13:36;15.80;99.90
18103;DHT22;9178;51.120;6.192;2022-10-18T08:16:07;15.80;99.90
18103;DHT22;9178;51.120;6.192;2022-10-18T08:18:35;15.90;99.90
18103;DHT22;9178;51.120;6.192;2022-10-18T08:21:03;15.90;99.90
18103;DHT22;9178;51.120;6.192;2022-10-18T08:23:30;16.00;99.90
18103;DHT22;9178;51.120;6.192;2022-10-18T08:26:00;16.00;99.90
18103;DHT22;9178;51.120;6.192;2022-10-18T08:28:27;16.00;99.90
18103;DHT22;9178;51.120;6.192;2022-10-18T08:30:54;16.00;99.90
18103;DHT22;9178;51.120;6.192;2022-10-18T08:33:22;16.10;99.90
18103;DHT22;9178;51.120;6.192;2022-10-18T08:35:56;16.10;99.90
18103;DHT22;9178;51.120;6.192;2022-10-18T08:38:23;16.10;99.90
18103;DHT22;9178;51.120;6.192;2022-10-18T08:40:50;16.10;99.90
18103;DHT22;9178;51.120;6.192;2022-10-18T08:43:25;16.10;99.90
18103;DHT22;9178;51.120;6.192;2022-10-18T08:45:54;16.10;99.90
18103;DHT22;9178;51.120;6.192;2022-10-18T08:48:29;16.10;99.90
18103;DHT22;9178;51.120;6.192;2022-10-18T08:50:59;16.10;99.90
18103;DHT22;9178;51.120;6.192;2022-10-18T08:53:28;16.10;99.90
18103;DHT22;9178;51.120;6.192;2022-10-18T08:56:01;16.20;99.90
18103;DHT22;9178;51.120;6.192;2022-10-18T08:58:31;16.20;99.90
18103;DHT22;9178;51.120;6.192;2022-10-18T09:01:07;16.30;99.90
18103;DHT22;9178;51.120;6.192;2022-10-18T09:03:59;16.20;99.90
18103;DHT22;9178;51.120;6.192;2022-10-18T09:06:34;16.20;99.90
18103;DHT22;9178;51.120;6.192;2022-10-18T09:09:15;16.20;99.90
18103;DHT22;9178;51.120;6.192;2022-10-18T09:11:50;16.20;99.90
18103;DHT22;9178;51.120;6.192;2022-10-18T09:14:37;16.30;99.90
18103;DHT22;9178;51.120;6.192;2022-10-18T09:17:14;16.30;99.90
18103;DHT22;9178;51.120;6.192;2022-10-18T09:19:56;16.40;99.90
18103;DHT22;9178;51.120;6.192;2022-10-18T09:22:37;16.50;99.90
18103;DHT22;9178;51.120;6.192;2022-10-18T09:25:11;16.50;99.90
18103;DHT22;9178;51.120;6.192;2022-10-18T09:27:49;16.50;99.90
18103;DHT22;9178;51.120;6.192;2022-10-18T09:33:19;16.40;99.90
18103;DHT22;9178;51.120;6.192;2022-10-18T09:35:53;16.40;99.90
18103;DHT22;9178;51.120;6.192;2022-10-18T09:38:23;16.50;99.90
18103;DHT22;9178;51.120;6.192;2022-10-18T09:40:54;16.50;99.90
18103;DHT22;9178;51.120;6.192;2022-10-18T09:43:24;16.40;99.90
18103;DHT22;9178;51.120;6.192;2022-10-18T09:45:53;16.50;99.90
18103;DHT22;9178;51.120;6.192;2022-10-18T09:48:22;16.50;99.90
18103;DHT22;9178;51.120;6.192;2022-10-18T09:50:57;16.50;99.90
18103;DHT22;9178;51.120;6.192;2022-10-18T09:53:31;16.50;99.90
18103;DHT22;9178;51.120;6.192;2022-10-18T09:56:02;16.50;99.90
18103;DHT22;9178;51.120;6.192;2022-10-18T09:58:39;16.50;99.90
18103;DHT22;9178;51.120;6.192;2022-10-18T10:01:07;16.40;99.90
18103;DHT22;9178;51.120;6.192;2022-10-18T10:03:34;16.50;99.90
18103;DHT22;9178;51.120;6.192;2022-10-18T10:06:14;16.50;99.90
18103;DHT22;9178;51.120;6.192;2022-10-18T10:08:43;16.50;99.90
18103;DHT22;9178;51.120;6.192;2022-10-18T10:11:31;16.60;99.90
18103;DHT22;9178;51.120;6.192;2022-10-18T10:14:08;16.70;99.90
18103;DHT22;9178;51.120;6.192;2022-10-18T10:16:42;16.80;99.90
18103;DHT22;9178;51.120;6.192;2022-10-18T10:19:18;16.80;99.90
18103;DHT22;9178;51.120;6.192;2022-10-18T10:21:49;17.00;99.90
18103;DHT22;9178;51.120;6.192;2022-10-18T10:24:25;17.10;99.90
18103;DHT22;9178;51.120;6.192;2022-10-18T10:26:59;17.10;99.90
18103;DHT22;9178;51.120;6.192;2022-10-18T10:29:53;17.40;99.90
18103;DHT22;9178;51.120;6.192;2022-10-18T10:32:23;17.60;99.90
18103;DHT22;9178;51.120;6.192;2022-10-18T10:34:50;17.80;99.90
18103;DHT22;9178;51.120;6.192;2022-10-18T10:37:27;17.80;99.90
18103;DHT22;9178;51.120;6.192;2022-10-18T10:40:19;17.90;99.90
18103;DHT22;9178;51.120;6.192;2022-10-18T10:43:05;17.80;99.90
18103;DHT22;9178;51.120;6.192;2022-10-18T10:45:39;17.60;99.90
18103;DHT22;9178;51.120;6.192;2022-10-18T10:48:12;17.50;99.90
18103;DHT22;9178;51.120;6.192;2022-10-18T10:50:52;17.50;99.90
18103;DHT22;9178;51.120;6.192;2022-10-18T10:53:38;17.60;99.90
18103;DHT22;9178;51.120;6.192;2022-10-18T10:56:12;17.60;99.90
18103;DHT22;9178;51.120;6.192;2022-10-18T10:58:41;17.60;99.90
18103;DHT22;9178;51.120;6.192;2022-10-18T11:01:20;17.60;99.90
18103;DHT22;9178;51.120;6.192;2022-10-18T11:03:48;17.90;99.90
18103;DHT22;9178;51.120;6.192;2022-10-18T11:06:30;18.10;99.90
18103;DHT22;9178;51.120;6.192;2022-10-18T11:09:04;18.20;99.90
18103;DHT22;9178;51.120;6.192;2022-10-18T11:11:38;18.30;99.90
18103;DHT22;9178;51.120;6.192;2022-10-18T11:14:15;18.30;99.90
18103;DHT22;9178;51.120;6.192;2022-10-18T11:16:53;18.20;99.90
18103;DHT22;9178;51.120;6.192;2022-10-18T11:19:30;18.10;99.90
18103;DHT22;9178;51.120;6.192;2022-10-18T11:21:59;18.00;99.90
18103;DHT22;9178;51.120;6.192;2022-10-18T11:24:29;17.90;99.90
18103;DHT22;9178;51.120;6.192;2022-10-18T11:27:01;17.80;99.90
18103;DHT22;9178;51.120;6.192;2022-10-18T11:29:43;17.80;99.90
18103;DHT22;9178;51.120;6.192;2022-10-18T11:32:21;17.90;99.90
18103;DHT22;9178;51.120;6.192;2022-10-18T11:35:01;18.20;99.90
18103;DHT22;9178;51.120;6.192;2022-10-18T11:37:44;18.50;99.90
18103;DHT22;9178;51.120;6.192;2022-10-18T11:40:30;18.60;99.90
18103;DHT22;9178;51.120;6.192;2022-10-18T11:43:05;18.90;99.90
18103;DHT22;9178;51.120;6.192;2022-10-18T11:45:40;19.20;99.90
18103;DHT22;9178;51.120;6.192;2022-10-18T11:48:25;19.30;99.90
18103;DHT22;9178;51.120;6.192;2022-10-18T11:51:00;19.30;99.90
18103;DHT22;9178;51.120;6.192;2022-10-18T11:53:41;19.20;99.90
18103;DHT22;9178;51.120;6.192;2022-10-18T11:56:21;19.20;99.90
18103;DHT22;9178;51.120;6.192;2022-10-18T11:59:07;19.20;99.90
18103;DHT22;9178;51.120;6.192;2022-10-18T12:01:42;19.00;99.90
18103;DHT22;9178;51.120;6.192;2022-10-18T12:04:17;19.00;99.90
18103;DHT22;9178;51.120;6.192;2022-10-18T12:06:46;18.90;99.90
18103;DHT22;9178;51.120;6.192;2022-10-18T12:09:22;18.70;99.90
18103;DHT22;9178;51.120;6.192;2022-10-18T12:11:54;18.60;99.90
18103;DHT22;9178;51.120;6.192;2022-10-18T12:14:25;18.50;99.90
18103;DHT22;9178;51.120;6.192;2022-10-18T12:16:54;18.40;99.90
18103;DHT22;9178;51.120;6.192;2022-10-18T12:19:25;18.40;99.90
18103;DHT22;9178;51.120;6.192;2022-10-18T12:21:55;18.40;99.90
18103;DHT22;9178;51.120;6.192;2022-10-18T12:24:25;18.50;99.90
18103;DHT22;9178;51.120;6.192;2022-10-18T12:26:58;18.90;99.90
18103;DHT22;9178;51.120;6.192;2022-10-18T12:29:30;19.40;99.90
18103;DHT22;9178;51.120;6.192;2022-10-18T12:32:02;19.60;99.90
18103;DHT22;9178;51.120;6.192;2022-10-18T12:34:35;19.60;99.90
18103;DHT22;9178;51.120;6.192;2022-10-18T12:37:29;19.60;99.90
18103;DHT22;9178;51.120;6.192;2022-10-18T12:40:02;19.30;99.90
18103;DHT22;9178;51.120;6.192;2022-10-18T12:42:33;19.10;99.90
18103;DHT22;9178;51.120;6.192;2022-10-18T12:45:19;19.00;99.90
18103;DHT22;9178;51.120;6.192;2022-10-18T12:47:48;18.80;99.90
18103;DHT22;9178;51.120;6.192;2022-10-18T12:50:32;18.60;99.90
18103;DHT22;9178;51.120;6.192;2022-10-18T12:53:02;18.60;99.90
18103;DHT22;9178;51.120;6.192;2022-10-18T12:55:34;18.60;99.90
18103;DHT22;9178;51.120;6.192;2022-10-18T13:01:05;18.50;99.90
18103;DHT22;9178;51.120;6.192;2022-10-18T13:03:39;18.20;99.90
18103;DHT22;9178;51.120;6.192;2022-10-18T13:06:06;18.00;99.90
18103;DHT22;9178;51.120;6.192;2022-10-18T13:08:38;17.70;99.90
18103;DHT22;9178;51.120;6.192;2022-10-18T13:11:26;17.70;99.90
18103;DHT22;9178;51.120;6.192;2022-10-18T13:14:33;17.70;99.90
18103;DHT22;9178;51.120;6.192;2022-10-18T13:17:12;17.70;99.90
18103;DHT22;9178;51.120;6.192;2022-10-18T13:19:50;17.70;99.90
18103;DHT22;9178;51.120;6.192;2022-10-18T13:22:32;17.70;99.90
18103;DHT22;9178;51.120;6.192;2022-10-18T13:25:05;17.70;99.90
18103;DHT22;9178;51.120;6.192;2022-10-18T13:27:43;17.90;99.90
18103;DHT22;9178;51.120;6.192;2022-10-18T13:30:32;18.10;99.90
18103;DHT22;9178;51.120;6.192;2022-10-18T13:33:24;18.30;99.90
18103;DHT22;9178;51.120;6.192;2022-10-18T13:35:56;18.50;99.90
18103;DHT22;9178;51.120;6.192;2022-10-18T13:38:40;18.80;99.90
18103;DHT22;9178;51.120;6.192;2022-10-18T13:41:11;19.50;99.90
18103;DHT22;9178;51.120;6.192;2022-10-18T13:44:09;19.90;99.90
18103;DHT22;9178;51.120;6.192;2022-10-18T13:53:22;21.10;99.90
18103;DHT22;9178;51.120;6.192;2022-10-18T13:59:16;20.40;99.90
18103;DHT22;9178;51.120;6.192;2022-10-18T14:01:55;20.20;99.90
18103;DHT22;9178;51.120;6.192;2022-10-18T14:04:37;20.00;99.90
18103;DHT22;9178;51.120;6.192;2022-10-18T14:07:06;19.60;99.90
18103;DHT22;9178;51.120;6.192;2022-10-18T14:09:43;19.30;99.90
18103;DHT22;9178;51.120;6.192;2022-10-18T14:12:17;19.10;99.90
18103;DHT22;9178;51.120;6.192;2022-10-18T14:14:53;18.90;99.90
18103;DHT22;9178;51.120;6.192;2022-10-18T14:17:28;18.80;99.90
18103;DHT22;9178;51.120;6.192;2022-10-18T14:20:02;18.70;99.90
18103;DHT22;9178;51.120;6.192;2022-10-18T14:22:35;18.60;99.90
18103;DHT22;9178;51.120;6.192;2022-10-18T14:25:18;18.50;99.90
18103;DHT22;9178;51.120;6.192;2022-10-18T14:27:45;18.40;99.90
18103;DHT22;9178;51.120;6.192;2022-10-18T14:30:14;18.20;99.90
18103;DHT22;9178;51.120;6.192;2022-10-18T14:32:43;18.10;99.90
18103;DHT22;9178;51.120;6.192;2022-10-18T14:35:16;18.00;99.90
18103;DHT22;9178;51.120;6.192;2022-10-18T14:37:45;17.90;99.90
18103;DHT22;9178;51.120;6.192;2022-10-18T14:40:29;17.80;99.90
18103;DHT22;9178;51.120;6.192;2022-10-18T14:43:00;17.70;99.90
18103;DHT22;9178;51.120;6.192;2022-10-18T14:45:27;17.60;99.90
18103;DHT22;9178;51.120;6.192;2022-10-18T14:47:54;17.40;99.90
18103;DHT22;9178;51.120;6.192;2022-10-18T14:50:30;17.30;99.90
18103;DHT22;9178;51.120;6.192;2022-10-18T14:52:57;17.30;99.90
18103;DHT22;9178;51.120;6.192;2022-10-18T14:55:30;17.30;99.90
18103;DHT22;9178;51.120;6.192;2022-10-18T14:57:58;17.20;99.90
18103;DHT22;9178;51.120;6.192;2022-10-18T15:00:29;17.10;99.90
18103;DHT22;9178;51.120;6.192;2022-10-18T15:03:00;17.00;99.90
18103;DHT22;9178;51.120;6.192;2022-10-18T15:05:27;17.00;99.90
18103;DHT22;9178;51.120;6.192;2022-10-18T15:07:56;16.90;99.90
18103;DHT22;9178;51.120;6.192;2022-10-18T15:10:27;16.90;99.90
18103;DHT22;9178;51.120;6.192;2022-10-18T15:12:56;16.80;99.90
18103;DHT22;9178;51.120;6.192;2022-10-18T15:15:28;16.80;99.90
18103;DHT22;9178;51.120;6.192;2022-10-18T15:17:57;16.80;99.90
18103;DHT22;9178;51.120;6.192;2022-10-18T15:20:26;16.70;99.90
18103;DHT22;9178;51.120;6.192;2022-10-18T15:23:20;16.60;99.90
18103;DHT22;9178;51.120;6.192;2022-10-18T15:25:47;16.50;99.90
18103;DHT22;9178;51.120;6.192;2022-10-18T15:28:23;16.40;99.90
18103;DHT22;9178;51.120;6.192;2022-10-18T15:30:52;16.40;99.90
18103;DHT22;9178;51.120;6.192;2022-10-18T15:33:23;16.30;99.90
18103;DHT22;9178;51.120;6.192;2022-10-18T15:35:51;16.30;99.90
18103;DHT22;9178;51.120;6.192;2022-10-18T15:38:25;16.20;99.90
18103;DHT22;9178;51.120;6.192;2022-10-18T15:40:52;16.20;99.90
18103;DHT22;9178;51.120;6.192;2022-10-18T15:43:34;16.10;99.90
18103;DHT22;9178;51.120;6.192;2022-10-18T15:46:05;16.10;99.90
18103;DHT22;9178;51.120;6.192;2022-10-18T15:48:34;16.00;99.90
18103;DHT22;9178;51.120;6.192;2022-10-18T15:51:02;15.90;99.90
18103;DHT22;9178;51.120;6.192;2022-10-18T15:53:45;15.90;99.90
18103;DHT22;9178;51.120;6.192;2022-10-18T15:56:30;15.90;99.90
18103;DHT22;9178;51.120;6.192;2022-10-18T15:59:01;15.80;99.90
18103;DHT22;9178;51.120;6.192;2022-10-18T16:01:35;15.80;99.90
18103;DHT22;9178;51.120;6.192;2022-10-18T16:04:08;15.70;99.90
18103;DHT22;9178;51.120;6.192;2022-10-18T16:06:36;15.60;99.90
18103;DHT22;9178;51.120;6.192;2022-10-18T16:09:04;15.50;99.90
18103;DHT22;9178;51.120;6.192;2022-10-18T16:11:31;15.50;99.90
18103;DHT22;9178;51.120;6.192;2022-10-18T16:13:59;15.40;99.90
18103;DHT22;9178;51.120;6.192;2022-10-18T16:16:27;15.40;99.90
18103;DHT22;9178;51.120;6.192;2022-10-18T16:18:55;15.30;99.90
18103;DHT22;9178;51.120;6.192;2022-10-18T16:21:24;15.30;99.90
18103;DHT22;9178;51.120;6.192;2022-10-18T16:23:51;15.20;99.90
18103;DHT22;9178;51.120;6.192;2022-10-18T16:26:19;15.20;99.90
18103;DHT22;9178;51.120;6.192;2022-10-18T16:28:47;15.10;99.90
18103;DHT22;9178;51.120;6.192;2022-10-18T16:31:17;15.00;99.90